Time;durP1;ratioP1;P1;durP2;ratioP2;P2;SDS_P1;SDS_P2;PMS_P1;PMS_P2;Temp;Humidity;BMP_temperature;BMP_pressure;BME280_temperature;BME280_humidity;BME280_pressure;Samples;Min_cycle;Max_cycle;Signal;HPM_P1;HPM_P2
2023/07/04 00:00:24;;;;;;;19.03;5.80;;;;;;;;;;5050322;28;20048;-63
2023/07/04 00:02:50;;;;;;;19.93;5.77;;;;;;;;;;5050180;28;20048;-62
2023/07/04 00:05:16;;;;;;;20.13;5.87;;;;;;;;;;5050205;28;20127;-62
2023/07/04 00:07:42;;;;;;;24.03;5.63;;;;;;;;;;5050088;28;20060;-63
2023/07/04 00:10:09;;;;;;;16.97;6.00;;;;;;;;;;5049966;28;20156;-63
2023/07/04 00:12:34;;;;;;;19.13;5.47;;;;;;;;;;5049775;28;20132;-63
2023/07/04 00:15:00;;;;;;;18.97;6.23;;;;;;;;;;5050042;28;20170;-63
2023/07/04 00:17:27;;;;;;;27.27;7.00;;;;;;;;;;5049154;28;20080;-62
2023/07/04 00:19:53;;;;;;;20.20;6.17;;;;;;;;;;5049580;28;20785;-62
2023/07/04 00:22:19;;;;;;;22.33;6.23;;;;;;;;;;5050092;28;20060;-63
2023/07/04 00:24:47;;;;;;;24.33;6.57;;;;;;;;;;5049503;28;20128;-62
2023/07/04 00:27:13;;;;;;;17.80;5.80;;;;;;;;;;5055367;28;20056;-62
2023/07/04 00:29:40;;;;;;;15.23;5.90;;;;;;;;;;5069960;28;20430;-62
2023/07/04 00:32:07;;;;;;;16.97;6.50;;;;;;;;;;5069436;28;20147;-62
2023/07/04 00:34:34;;;;;;;18.83;5.30;;;;;;;;;;5069934;28;20173;-63
2023/07/04 00:36:59;;;;;;;15.43;6.17;;;;;;;;;;5047500;28;20127;-62
2023/07/04 00:39:26;;;;;;;23.53;5.60;;;;;;;;;;5049278;28;20124;-62
2023/07/04 00:41:53;;;;;;;14.33;4.90;;;;;;;;;;5049402;28;20092;-63
2023/07/04 00:44:30;;;;;;;21.00;6.07;;;;;;;;;;5049496;28;20044;-62
2023/07/04 00:47:06;;;;;;;16.90;5.43;;;;;;;;;;5048834;28;20123;-63
2023/07/04 00:49:43;;;;;;;19.37;5.30;;;;;;;;;;5048723;28;20489;-63
2023/07/04 00:52:13;;;;;;;15.30;5.30;;;;;;;;;;5049649;28;20053;-63
2023/07/04 00:54:43;;;;;;;17.93;5.53;;;;;;;;;;5049335;28;20078;-62
2023/07/04 00:57:10;;;;;;;21.20;6.60;;;;;;;;;;5064998;28;20118;-62
2023/07/04 00:59:43;;;;;;;18.37;5.80;;;;;;;;;;5069001;28;20056;-63
2023/07/04 01:02:10;;;;;;;16.42;4.38;;;;;;;;;;5069345;28;20048;-62
2023/07/04 01:04:36;;;;;;;17.07;4.87;;;;;;;;;;5068731;28;20056;-62
2023/07/04 01:07:14;;;;;;;21.77;5.37;;;;;;;;;;5068599;28;20523;-62
2023/07/04 01:09:43;;;;;;;18.07;5.27;;;;;;;;;;5068817;28;20041;-63
2023/07/04 01:12:12;;;;;;;18.37;5.40;;;;;;;;;;5067880;28;20052;-62
2023/07/04 01:14:38;;;;;;;20.77;5.50;;;;;;;;;;5068461;28;20073;-62
2023/07/04 01:17:06;;;;;;;20.13;5.83;;;;;;;;;;5068897;28;20054;-62
2023/07/04 01:19:35;;;;;;;17.67;6.00;;;;;;;;;;5068765;28;20047;-62
2023/07/04 01:22:09;;;;;;;19.23;6.13;;;;;;;;;;5057097;28;20411;-63
2023/07/04 01:24:50;;;;;;;18.93;6.03;;;;;;;;;;5048578;28;20049;-63
2023/07/04 01:27:17;;;;;;;13.83;6.00;;;;;;;;;;5048636;28;20151;-62
2023/07/04 01:29:43;;;;;;;15.27;5.43;;;;;;;;;;5060058;28;20272;-62
2023/07/04 01:32:10;;;;;;;17.10;6.00;;;;;;;;;;5058142;28;20049;-63
2023/07/04 01:34:36;;;;;;;19.90;6.70;;;;;;;;;;5047243;28;20083;-62
2023/07/04 01:37:03;;;;;;;14.83;5.43;;;;;;;;;;5048501;28;21083;-63
2023/07/04 01:39:29;;;;;;;18.07;5.73;;;;;;;;;;5048463;28;20041;-62
2023/07/04 01:41:55;;;;;;;15.73;5.83;;;;;;;;;;5047969;28;20045;-62
2023/07/04 01:44:24;;;;;;;19.60;6.97;;;;;;;;;;5048668;28;20044;-63
2023/07/04 01:46:50;;;;;;;17.73;5.93;;;;;;;;;;5048468;28;20093;-63
2023/07/04 01:49:17;;;;;;;17.17;5.93;;;;;;;;;;5048510;28;20086;-63
2023/07/04 01:51:44;;;;;;;23.47;7.60;;;;;;;;;;5059023;28;20094;-62
2023/07/04 01:54:16;;;;;;;18.77;7.10;;;;;;;;;;5067444;28;20041;-62
2023/07/04 01:56:42;;;;;;;23.07;6.90;;;;;;;;;;5065814;28;20118;-62
2023/07/04 01:59:09;;;;;;;14.47;7.03;;;;;;;;;;5048379;28;20300;-63
2023/07/04 02:01:35;;;;;;;17.97;6.73;;;;;;;;;;5048673;28;20075;-63
2023/07/04 02:04:01;;;;;;;19.03;7.20;;;;;;;;;;5047524;28;20052;-63
2023/07/04 02:06:27;;;;;;;24.47;7.63;;;;;;;;;;5048258;28;20075;-63
2023/07/04 02:08:56;;;;;;;25.63;8.67;;;;;;;;;;5048223;28;20128;-62
2023/07/04 02:11:22;;;;;;;26.67;8.90;;;;;;;;;;5048279;28;20045;-62
2023/07/04 02:13:48;;;;;;;24.57;7.67;;;;;;;;;;5048137;28;20049;-63
2023/07/04 02:16:14;;;;;;;19.20;8.03;;;;;;;;;;5047573;28;20091;-62
2023/07/04 02:18:40;;;;;;;19.87;8.67;;;;;;;;;;5047781;28;20065;-63
2023/07/04 02:21:06;;;;;;;27.13;9.93;;;;;;;;;;5053406;28;20045;-62
2023/07/04 02:23:32;;;;;;;22.00;8.07;;;;;;;;;;5060403;28;20534;-63
2023/07/04 02:25:58;;;;;;;22.30;8.83;;;;;;;;;;5047797;28;20049;-62
2023/07/04 02:28:24;;;;;;;23.83;8.83;;;;;;;;;;5047968;28;20049;-63
2023/07/04 02:30:54;;;;;;;22.17;9.10;;;;;;;;;;5048094;28;20048;-63
2023/07/04 02:33:20;;;;;;;23.20;8.47;;;;;;;;;;5067908;28;20114;-63
2023/07/04 02:35:47;;;;;;;25.30;9.63;;;;;;;;;;5067573;28;20044;-62
2023/07/04 02:38:13;;;;;;;25.73;8.77;;;;;;;;;;5067934;28;20396;-62
2023/07/04 02:40:43;;;;;;;21.60;7.80;;;;;;;;;;5068824;28;20044;-62
2023/07/04 02:43:09;;;;;;;26.40;8.47;;;;;;;;;;5070343;28;20048;-62
2023/07/04 02:45:35;;;;;;;20.73;7.73;;;;;;;;;;5072164;28;20045;-62
2023/07/04 02:48:01;;;;;;;21.90;9.63;;;;;;;;;;5071388;28;20054;-63
2023/07/04 02:50:27;;;;;;;29.77;10.27;;;;;;;;;;5070353;28;20052;-63
2023/07/04 02:52:53;;;;;;;24.83;7.57;;;;;;;;;;5071540;28;20490;-62
2023/07/04 02:55:20;;;;;;;19.90;7.80;;;;;;;;;;5071223;28;20055;-63
2023/07/04 02:57:46;;;;;;;19.77;7.67;;;;;;;;;;5071582;28;20056;-63
2023/07/04 03:00:12;;;;;;;27.47;7.90;;;;;;;;;;5071041;28;20047;-62
2023/07/04 03:02:38;;;;;;;28.57;9.20;;;;;;;;;;5071441;28;20036;-62
2023/07/04 03:05:05;;;;;;;25.57;8.83;;;;;;;;;;5071164;28;20044;-62
2023/07/04 03:07:31;;;;;;;21.87;8.63;;;;;;;;;;5071331;28;20505;-63
2023/07/04 03:09:57;;;;;;;21.73;7.77;;;;;;;;;;5071116;28;20052;-63
2023/07/04 03:12:23;;;;;;;28.77;9.87;;;;;;;;;;5071233;28;20422;-63
2023/07/04 03:14:48;;;;;;;35.40;9.80;;;;;;;;;;5070460;28;20103;-63
2023/07/04 03:17:14;;;;;;;26.73;9.17;;;;;;;;;;5071489;28;20093;-63
2023/07/04 03:19:40;;;;;;;25.37;9.20;;;;;;;;;;5069833;28;20438;-62
2023/07/04 03:22:06;;;;;;;22.87;8.93;;;;;;;;;;5067981;28;20159;-62
2023/07/04 03:24:32;;;;;;;31.83;10.53;;;;;;;;;;5050467;28;20841;-62
2023/07/04 03:26:59;;;;;;;25.33;9.33;;;;;;;;;;5051097;28;20052;-63
2023/07/04 03:29:25;;;;;;;30.80;9.90;;;;;;;;;;5050654;28;20537;-63
2023/07/04 03:31:51;;;;;;;28.07;11.00;;;;;;;;;;5050662;28;20037;-63
2023/07/04 03:34:17;;;;;;;20.30;9.80;;;;;;;;;;5049226;28;20485;-62
2023/07/04 03:36:43;;;;;;;25.37;9.90;;;;;;;;;;5049157;28;20060;-62
2023/07/04 03:39:09;;;;;;;29.97;10.87;;;;;;;;;;5050227;28;20087;-63
2023/07/04 03:41:35;;;;;;;31.33;12.03;;;;;;;;;;5050050;28;20511;-62
2023/07/04 03:44:01;;;;;;;24.07;10.47;;;;;;;;;;5050176;28;20051;-62
2023/07/04 03:46:27;;;;;;;24.67;11.13;;;;;;;;;;5050646;28;20397;-63
2023/07/04 03:48:53;;;;;;;26.40;10.53;;;;;;;;;;5050340;28;20415;-63
2023/07/04 03:51:20;;;;;;;35.23;12.53;;;;;;;;;;5049148;28;20170;-62
2023/07/04 03:53:48;;;;;;;32.83;11.50;;;;;;;;;;5049789;28;20052;-63
2023/07/04 03:56:15;;;;;;;22.17;10.80;;;;;;;;;;5050095;28;20049;-63
2023/07/04 03:58:41;;;;;;;26.90;11.47;;;;;;;;;;5050235;28;20448;-63
2023/07/04 04:01:07;;;;;;;23.83;10.23;;;;;;;;;;5050051;28;20055;-63
2023/07/04 04:03:38;;;;;;;26.40;11.17;;;;;;;;;;5050101;28;20075;-62
2023/07/04 04:06:05;;;;;;;21.13;10.33;;;;;;;;;;5049912;28;20504;-63
2023/07/04 04:08:31;;;;;;;25.90;11.40;;;;;;;;;;5050292;28;20047;-62
2023/07/04 04:10:57;;;;;;;31.77;11.17;;;;;;;;;;5049390;28;20037;-62
2023/07/04 04:13:23;;;;;;;27.43;10.20;;;;;;;;;;5049930;28;20064;-63
2023/07/04 04:15:49;;;;;;;23.27;9.30;;;;;;;;;;5049594;28;20049;-63
2023/07/04 04:18:15;;;;;;;24.20;9.90;;;;;;;;;;5050105;28;20080;-63
2023/07/04 04:20:41;;;;;;;22.27;8.63;;;;;;;;;;5049434;28;20071;-63
2023/07/04 04:23:07;;;;;;;27.70;8.60;;;;;;;;;;5049953;28;20040;-63
2023/07/04 04:25:38;;;;;;;24.77;8.30;;;;;;;;;;5049299;28;20049;-62
2023/07/04 04:28:04;;;;;;;20.47;7.90;;;;;;;;;;5049519;28;20045;-63
2023/07/04 04:30:30;;;;;;;19.67;7.87;;;;;;;;;;5058938;28;20041;-63
2023/07/04 04:32:56;;;;;;;21.90;7.10;;;;;;;;;;5069220;28;20471;-63
2023/07/04 04:35:22;;;;;;;16.47;6.33;;;;;;;;;;5069368;28;20051;-63
2023/07/04 04:37:48;;;;;;;15.33;6.53;;;;;;;;;;5068986;28;20126;-63
2023/07/04 04:40:14;;;;;;;17.47;6.70;;;;;;;;;;5051592;28;20037;-63
2023/07/04 04:42:43;;;;;;;16.60;5.30;;;;;;;;;;5049394;28;20067;-63
2023/07/04 04:45:10;;;;;;;18.27;5.33;;;;;;;;;;5049543;28;20060;-63
2023/07/04 04:47:36;;;;;;;12.67;4.83;;;;;;;;;;5049593;28;20048;-63
2023/07/04 04:50:02;;;;;;;18.23;5.73;;;;;;;;;;5048535;28;20060;-63
2023/07/04 04:52:31;;;;;;;13.73;4.30;;;;;;;;;;5049389;28;20045;-63
2023/07/04 04:54:58;;;;;;;10.30;4.50;;;;;;;;;;5049061;28;20116;-63
2023/07/04 04:57:24;;;;;;;10.67;4.30;;;;;;;;;;5047777;28;20049;-62
2023/07/04 04:59:56;;;;;;;12.07;3.90;;;;;;;;;;5048235;28;20059;-63
2023/07/04 05:02:23;;;;;;;9.93;4.50;;;;;;;;;;5048604;28;20064;-63
2023/07/04 05:04:49;;;;;;;11.00;3.93;;;;;;;;;;5048711;28;20045;-63
2023/07/04 05:07:15;;;;;;;10.13;3.87;;;;;;;;;;5061123;28;20051;-63
2023/07/04 05:09:41;;;;;;;12.83;3.60;;;;;;;;;;5049298;28;20045;-63
2023/07/04 05:12:07;;;;;;;13.87;3.67;;;;;;;;;;5048994;28;20072;-63
2023/07/04 05:14:33;;;;;;;10.13;3.20;;;;;;;;;;5049117;28;20130;-63
2023/07/04 05:17:00;;;;;;;12.20;3.93;;;;;;;;;;5048582;28;20048;-63
2023/07/04 05:19:26;;;;;;;8.40;3.20;;;;;;;;;;5049108;28;20557;-63
2023/07/04 05:21:52;;;;;;;7.40;3.10;;;;;;;;;;5048699;28;20164;-63
2023/07/04 05:24:18;;;;;;;13.90;3.80;;;;;;;;;;5048236;28;20068;-63
2023/07/04 05:26:44;;;;;;;10.40;3.47;;;;;;;;;;5048533;28;20045;-62
2023/07/04 05:29:10;;;;;;;12.87;3.70;;;;;;;;;;5054607;28;20048;-63
2023/07/04 05:31:36;;;;;;;11.00;3.63;;;;;;;;;;5053075;28;20553;-62
2023/07/04 05:34:02;;;;;;;11.17;2.93;;;;;;;;;;5048556;28;20056;-63
2023/07/04 05:36:29;;;;;;;11.50;3.90;;;;;;;;;;5048066;28;20516;-64
2023/07/04 05:38:56;;;;;;;9.93;2.60;;;;;;;;;;5048248;28;20103;-63
2023/07/04 05:41:25;;;;;;;5.30;2.40;;;;;;;;;;5049542;28;20057;-63
2023/07/04 05:43:51;;;;;;;12.33;3.40;;;;;;;;;;5058544;28;20056;-63
2023/07/04 05:46:18;;;;;;;8.67;3.27;;;;;;;;;;5068127;28;20045;-63
2023/07/04 05:48:44;;;;;;;8.67;2.40;;;;;;;;;;5068323;28;20414;-63
2023/07/04 05:51:11;;;;;;;9.83;2.97;;;;;;;;;;5068252;28;20044;-63
2023/07/04 05:53:38;;;;;;;9.53;2.17;;;;;;;;;;5068526;28;20143;-63
2023/07/04 05:56:30;;;;;;;6.53;2.40;;;;;;;;;;5067665;28;20053;-62
2023/07/04 05:58:57;;;;;;;9.23;2.93;;;;;;;;;;5066168;28;20052;-62
2023/07/04 06:01:34;;;;;;;10.53;2.40;;;;;;;;;;5068305;28;20138;-62
2023/07/04 06:04:01;;;;;;;12.73;2.47;;;;;;;;;;5068270;28;20060;-62
2023/07/04 06:06:28;;;;;;;10.73;2.47;;;;;;;;;;5058715;28;20112;-63
2023/07/04 06:08:55;;;;;;;10.57;2.47;;;;;;;;;;5057884;28;20056;-62
2023/07/04 06:11:22;;;;;;;9.17;2.47;;;;;;;;;;5047061;28;20053;-62
2023/07/04 06:13:48;;;;;;;8.90;2.50;;;;;;;;;;5064951;28;20041;-62
2023/07/04 06:16:14;;;;;;;7.10;2.30;;;;;;;;;;5070547;28;20048;-62
2023/07/04 06:18:41;;;;;;;6.77;2.30;;;;;;;;;;5059749;28;20041;-62
2023/07/04 06:21:10;;;;;;;14.73;2.20;;;;;;;;;;5053029;28;20052;-62
2023/07/04 06:23:36;;;;;;;7.77;2.10;;;;;;;;;;5072201;28;20054;-62
2023/07/04 06:26:02;;;;;;;7.27;2.77;;;;;;;;;;5071269;28;20047;-62
2023/07/04 06:28:28;;;;;;;9.63;1.90;;;;;;;;;;5069080;28;20162;-62
2023/07/04 06:30:54;;;;;;;6.43;2.10;;;;;;;;;;5071286;28;20111;-62
2023/07/04 06:33:20;;;;;;;9.13;1.70;;;;;;;;;;5071058;28;20133;-62
2023/07/04 06:35:46;;;;;;;6.23;1.97;;;;;;;;;;5069589;28;20083;-62
2023/07/04 06:38:12;;;;;;;6.40;1.80;;;;;;;;;;5071445;28;20051;-62
2023/07/04 06:40:38;;;;;;;6.13;2.20;;;;;;;;;;5066832;28;20071;-61
2023/07/04 06:43:05;;;;;;;6.47;2.00;;;;;;;;;;5070057;28;20036;-61
2023/07/04 06:45:32;;;;;;;6.43;2.90;;;;;;;;;;5071538;28;20412;-61
2023/07/04 06:47:58;;;;;;;13.50;2.50;;;;;;;;;;5071589;28;20048;-62
2023/07/04 06:50:24;;;;;;;7.37;2.03;;;;;;;;;;5072047;28;20068;-61
2023/07/04 06:52:50;;;;;;;6.30;2.20;;;;;;;;;;5071570;28;20051;-61
2023/07/04 06:55:16;;;;;;;8.33;1.83;;;;;;;;;;5071894;28;20040;-61
2023/07/04 06:57:43;;;;;;;6.17;2.00;;;;;;;;;;5052319;28;20057;-61
2023/07/04 07:00:10;;;;;;;8.60;2.20;;;;;;;;;;5064876;28;20049;-62
2023/07/04 07:02:36;;;;;;;6.37;1.77;;;;;;;;;;5071196;28;20402;-61
2023/07/04 07:05:03;;;;;;;5.90;1.90;;;;;;;;;;5071549;28;20050;-61
2023/07/04 07:07:28;;;;;;;6.97;2.10;;;;;;;;;;5062297;28;20041;-62
2023/07/04 07:09:54;;;;;;;6.33;1.83;;;;;;;;;;5050682;28;20048;-61
2023/07/04 07:12:20;;;;;;;6.30;2.40;;;;;;;;;;5066606;28;20097;-62
2023/07/04 07:14:47;;;;;;;8.03;2.10;;;;;;;;;;5068609;28;20407;-62
2023/07/04 07:17:13;;;;;;;7.43;1.47;;;;;;;;;;5069248;28;20055;-61
2023/07/04 07:19:40;;;;;;;7.37;1.57;;;;;;;;;;5069314;28;20398;-61
2023/07/04 07:22:06;;;;;;;9.40;1.70;;;;;;;;;;5056350;28;20042;-61
2023/07/04 07:24:33;;;;;;;8.63;1.70;;;;;;;;;;5065448;28;20051;-61
2023/07/04 07:26:59;;;;;;;5.77;1.83;;;;;;;;;;5067445;28;20098;-61
2023/07/04 07:29:26;;;;;;;8.87;2.03;;;;;;;;;;5055809;28;20136;-62
2023/07/04 07:31:52;;;;;;;9.03;2.40;;;;;;;;;;5070197;28;20322;-61
2023/07/04 07:34:18;;;;;;;12.03;2.47;;;;;;;;;;5063824;28;20052;-61
2023/07/04 07:36:46;;;;;;;7.93;1.67;;;;;;;;;;5050603;28;20049;-61
2023/07/04 07:39:15;;;;;;;9.33;2.10;;;;;;;;;;5053634;28;20048;-61
2023/07/04 07:41:43;;;;;;;8.30;1.97;;;;;;;;;;5066601;28;20052;-59
2023/07/04 07:44:09;;;;;;;8.20;2.10;;;;;;;;;;5068247;28;20094;-59
2023/07/04 07:46:36;;;;;;;8.67;2.20;;;;;;;;;;5063945;28;20045;-59
2023/07/04 07:49:03;;;;;;;8.73;1.47;;;;;;;;;;5068109;28;20053;-58
2023/07/04 07:51:29;;;;;;;7.17;2.00;;;;;;;;;;5068780;28;20395;-60
2023/07/04 07:53:56;;;;;;;11.37;2.40;;;;;;;;;;5069821;28;20036;-59
2023/07/04 07:56:23;;;;;;;7.50;2.23;;;;;;;;;;5069539;28;20040;-60
2023/07/04 07:58:49;;;;;;;6.73;1.80;;;;;;;;;;5050338;28;20075;-60
2023/07/04 08:01:20;;;;;;;10.30;2.30;;;;;;;;;;5065837;28;20044;-60
2023/07/04 08:03:46;;;;;;;13.83;2.70;;;;;;;;;;5061408;28;20405;-60
2023/07/04 08:06:26;;;;;;;8.43;1.63;;;;;;;;;;5069601;28;20037;-60
2023/07/04 08:08:53;;;;;;;8.37;2.10;;;;;;;;;;5059245;28;20130;-59
2023/07/04 08:11:22;;;;;;;7.97;2.13;;;;;;;;;;5065035;28;20041;-60
2023/07/04 08:13:48;;;;;;;9.97;2.37;;;;;;;;;;5062315;28;20086;-61
2023/07/04 08:16:19;;;;;;;8.53;2.20;;;;;;;;;;5062040;28;20518;-61
2023/07/04 08:18:45;;;;;;;12.17;2.43;;;;;;;;;;5059306;28;20072;-61
2023/07/04 08:21:11;;;;;;;9.27;2.30;;;;;;;;;;5058487;28;20037;-58
2023/07/04 08:23:37;;;;;;;10.67;3.13;;;;;;;;;;5052329;28;20043;-60
2023/07/04 08:26:03;;;;;;;10.17;2.40;;;;;;;;;;5069909;28;20078;-60
2023/07/04 08:28:29;;;;;;;8.97;2.17;;;;;;;;;;5069109;28;20056;-59
2023/07/04 08:31:02;;;;;;;14.80;3.57;;;;;;;;;;5069391;28;20040;-60
2023/07/04 08:33:28;;;;;;;10.38;2.70;;;;;;;;;;5069419;28;20052;-60
2023/07/04 08:35:55;;;;;;;10.33;2.67;;;;;;;;;;5052499;28;20053;-60
2023/07/04 08:38:21;;;;;;;10.80;2.83;;;;;;;;;;5054993;28;20102;-60
2023/07/04 08:40:48;;;;;;;12.87;2.90;;;;;;;;;;5069308;28;20056;-60
2023/07/04 08:43:15;;;;;;;10.53;2.60;;;;;;;;;;5067229;28;20127;-59
2023/07/04 08:45:41;;;;;;;14.90;3.10;;;;;;;;;;5064595;28;20032;-60
2023/07/04 08:48:07;;;;;;;9.20;2.90;;;;;;;;;;5048599;28;20048;-60
2023/07/04 08:50:37;;;;;;;9.40;2.63;;;;;;;;;;5053147;28;20123;-60
2023/07/04 08:53:08;;;;;;;10.93;2.57;;;;;;;;;;5069526;28;20047;-60
2023/07/04 08:55:37;;;;;;;13.73;3.30;;;;;;;;;;5052253;28;20049;-61
2023/07/04 08:58:03;;;;;;;10.47;2.90;;;;;;;;;;5049199;28;20049;-59
2023/07/04 09:00:29;;;;;;;10.80;2.20;;;;;;;;;;5055948;28;20094;-59
2023/07/04 09:02:58;;;;;;;11.20;2.33;;;;;;;;;;5054988;28;20135;-60
2023/07/04 09:05:31;;;;;;;15.17;3.60;;;;;;;;;;5054197;28;20120;-59
2023/07/04 09:08:03;;;;;;;15.88;3.15;;;;;;;;;;5068920;28;20084;-59
2023/07/04 09:10:33;;;;;;;19.17;3.20;;;;;;;;;;5054607;28;20033;-59
2023/07/04 09:13:01;;;;;;;9.77;2.83;;;;;;;;;;5058244;28;20387;-59
2023/07/04 09:15:31;;;;;;;11.90;2.53;;;;;;;;;;5048827;28;20056;-59
2023/07/04 09:17:57;;;;;;;9.00;2.97;;;;;;;;;;5048535;28;20075;-59
2023/07/04 09:20:24;;;;;;;11.53;2.20;;;;;;;;;;5060837;28;20098;-60
2023/07/04 09:22:50;;;;;;;9.10;2.40;;;;;;;;;;5068000;28;20058;-59
2023/07/04 09:25:16;;;;;;;16.73;4.50;;;;;;;;;;5068428;28;20059;-60
2023/07/04 09:27:42;;;;;;;9.37;2.63;;;;;;;;;;5068524;28;20052;-60
2023/07/04 09:30:08;;;;;;;8.70;1.70;;;;;;;;;;5061927;28;20041;-60
2023/07/04 09:32:35;;;;;;;8.23;2.33;;;;;;;;;;5054741;28;20388;-60
2023/07/04 09:35:03;;;;;;;12.87;2.67;;;;;;;;;;5054594;28;20111;-60
2023/07/04 09:37:29;;;;;;;9.43;2.37;;;;;;;;;;5067732;28;20100;-60
2023/07/04 09:39:56;;;;;;;9.83;2.30;;;;;;;;;;5067899;28;20083;-60
2023/07/04 09:42:24;;;;;;;9.43;2.50;;;;;;;;;;5055564;28;20056;-60
2023/07/04 09:44:53;;;;;;;7.37;2.33;;;;;;;;;;5053866;28;20048;-60
2023/07/04 09:47:21;;;;;;;8.93;2.23;;;;;;;;;;5050034;28;20577;-60
2023/07/04 09:49:48;;;;;;;11.73;2.90;;;;;;;;;;5067455;28;20071;-60
2023/07/04 09:52:20;;;;;;;6.10;2.47;;;;;;;;;;5068058;28;20052;-60
2023/07/04 09:54:46;;;;;;;7.23;2.53;;;;;;;;;;5055084;28;20568;-60
2023/07/04 09:57:25;;;;;;;12.53;2.70;;;;;;;;;;5047609;28;20055;-60
2023/07/04 09:59:52;;;;;;;8.17;2.50;;;;;;;;;;5032522;28;20048;-59
2023/07/04 10:02:24;;;;;;;8.87;2.73;;;;;;;;;;5068383;28;20223;-59
2023/07/04 10:04:50;;;;;;;10.10;2.47;;;;;;;;;;5067265;28;20098;-59
2023/07/04 10:07:17;;;;;;;9.70;2.90;;;;;;;;;;5068011;28;20040;-58
2023/07/04 10:09:45;;;;;;;10.37;2.57;;;;;;;;;;5059883;28;20110;-58
2023/07/04 10:12:14;;;;;;;11.47;2.73;;;;;;;;;;5049639;28;20556;-59
2023/07/04 10:14:48;;;;;;;10.20;2.70;;;;;;;;;;5067586;28;20044;-59
2023/07/04 10:17:16;;;;;;;9.93;2.63;;;;;;;;;;5067260;28;20056;-59
2023/07/04 10:19:43;;;;;;;10.30;3.27;;;;;;;;;;5054487;28;20049;-60
2023/07/04 10:22:09;;;;;;;10.87;3.50;;;;;;;;;;5055538;28;20190;-60
2023/07/04 10:24:35;;;;;;;12.03;4.03;;;;;;;;;;5065004;28;20542;-59
2023/07/04 10:27:10;;;;;;;13.17;2.90;;;;;;;;;;5048024;28;20045;-59
2023/07/04 10:29:39;;;;;;;10.80;2.87;;;;;;;;;;5065885;28;20055;-59
2023/07/04 10:32:07;;;;;;;14.70;2.93;;;;;;;;;;5067503;28;20048;-59
2023/07/04 10:34:35;;;;;;;9.33;2.47;;;;;;;;;;5067115;28;20057;-59
2023/07/04 10:37:02;;;;;;;14.20;2.87;;;;;;;;;;5065043;28;20082;-59
2023/07/04 10:39:30;;;;;;;13.67;2.87;;;;;;;;;;5047820;28;20507;-60
2023/07/04 10:42:00;;;;;;;8.77;2.53;;;;;;;;;;5064832;28;20045;-59
2023/07/04 10:44:29;;;;;;;14.77;3.00;;;;;;;;;;5054634;28;20098;-59
2023/07/04 10:47:02;;;;;;;10.63;2.70;;;;;;;;;;5054292;28;20098;-60
2023/07/04 10:49:35;;;;;;;13.33;3.50;;;;;;;;;;5064845;28;20037;-59
2023/07/04 10:52:04;;;;;;;12.23;2.27;;;;;;;;;;5047798;28;20538;-59
2023/07/04 10:54:30;;;;;;;16.63;3.03;;;;;;;;;;5047249;28;21324;-60
2023/07/04 10:57:02;;;;;;;9.50;2.63;;;;;;;;;;5060293;28;20601;-60
2023/07/04 10:59:31;;;;;;;9.83;2.73;;;;;;;;;;5066949;28;21043;-60
2023/07/04 11:02:12;;;;;;;10.87;2.50;;;;;;;;;;5066008;28;20136;-60
2023/07/04 11:04:39;;;;;;;10.90;2.40;;;;;;;;;;5051307;28;20396;-60
2023/07/04 11:07:22;;;;;;;9.03;2.60;;;;;;;;;;5050994;28;20051;-60
2023/07/04 11:09:50;;;;;;;9.25;2.28;;;;;;;;;;5051053;28;20045;-61
2023/07/04 11:12:17;;;;;;;11.57;3.10;;;;;;;;;;5050432;28;20128;-60
2023/07/04 11:14:45;;;;;;;12.17;2.83;;;;;;;;;;5050555;28;20040;-60
2023/07/04 11:17:21;;;;;;;7.80;2.40;;;;;;;;;;5050910;28;20053;-60
2023/07/04 11:19:55;;;;;;;9.23;2.70;;;;;;;;;;5070864;28;20049;-60
2023/07/04 11:22:36;;;;;;;8.63;2.60;;;;;;;;;;5052985;28;20068;-60
2023/07/04 11:25:23;;;;;;;11.17;3.60;;;;;;;;;;5064582;28;20538;-60
2023/07/04 11:28:09;;;;;;;8.37;2.37;;;;;;;;;;5059204;28;20045;-60
2023/07/04 11:30:40;;;;;;;9.53;2.43;;;;;;;;;;5050421;28;20041;-60
2023/07/04 11:33:07;;;;;;;14.57;3.03;;;;;;;;;;5053995;28;20053;-60
2023/07/04 11:35:33;;;;;;;9.57;2.70;;;;;;;;;;5070250;28;20053;-60
2023/07/04 11:38:10;;;;;;;12.83;2.47;;;;;;;;;;5070280;28;20049;-60
2023/07/04 11:40:44;;;;;;;8.33;2.13;;;;;;;;;;5070296;28;20064;-60
2023/07/04 11:43:20;;;;;;;13.93;3.50;;;;;;;;;;5060428;28;20087;-60
2023/07/04 11:45:46;;;;;;;13.07;2.33;;;;;;;;;;5055642;28;20041;-60
2023/07/04 11:48:14;;;;;;;8.87;2.00;;;;;;;;;;5070138;28;20044;-60
2023/07/04 11:50:46;;;;;;;14.57;2.73;;;;;;;;;;5050569;28;20106;-60
2023/07/04 11:53:15;;;;;;;11.43;3.10;;;;;;;;;;5049931;28;20045;-60
2023/07/04 11:55:41;;;;;;;11.70;2.63;;;;;;;;;;5050079;28;20044;-60
2023/07/04 11:58:07;;;;;;;9.13;2.47;;;;;;;;;;5054201;28;20215;-61
2023/07/04 12:00:37;;;;;;;11.60;2.93;;;;;;;;;;5070327;28;20044;-60
2023/07/04 12:03:18;;;;;;;8.80;2.20;;;;;;;;;;5050001;28;20088;-60
2023/07/04 12:06:13;;;;;;;13.47;2.27;;;;;;;;;;5050030;28;20051;-60
2023/07/04 12:08:50;;;;;;;7.53;2.27;;;;;;;;;;5059169;28;20053;-59
2023/07/04 12:11:39;;;;;;;10.77;2.57;;;;;;;;;;5058487;28;20268;-59
2023/07/04 12:14:06;;;;;;;6.87;1.70;;;;;;;;;;5048480;28;20055;-60
2023/07/04 12:16:33;;;;;;;9.60;2.33;;;;;;;;;;5066899;28;20385;-60
2023/07/04 12:19:04;;;;;;;7.77;2.47;;;;;;;;;;5050097;28;20490;-60
2023/07/04 12:21:30;;;;;;;10.30;2.67;;;;;;;;;;5049372;28;20124;-59
2023/07/04 12:23:56;;;;;;;8.30;2.67;;;;;;;;;;5061496;28;20205;-60
2023/07/04 12:26:22;;;;;;;8.57;2.20;;;;;;;;;;5068981;28;20047;-59
2023/07/04 12:28:48;;;;;;;10.73;2.53;;;;;;;;;;5068004;28;20079;-60
2023/07/04 12:31:15;;;;;;;7.80;2.13;;;;;;;;;;5049988;28;20080;-61
2023/07/04 12:33:44;;;;;;;9.33;2.40;;;;;;;;;;5064951;28;20056;-60
2023/07/04 12:36:11;;;;;;;11.07;2.63;;;;;;;;;;5069448;28;20494;-60
2023/07/04 12:38:41;;;;;;;10.07;2.43;;;;;;;;;;5063243;28;20052;-59
2023/07/04 12:41:07;;;;;;;9.80;3.53;;;;;;;;;;5049372;28;20053;-60
2023/07/04 12:43:33;;;;;;;10.60;2.50;;;;;;;;;;5049532;28;20107;-60
2023/07/04 12:46:09;;;;;;;9.47;2.20;;;;;;;;;;5048979;28;20533;-60
2023/07/04 12:48:36;;;;;;;10.70;2.80;;;;;;;;;;5058948;28;20126;-60
2023/07/04 12:51:02;;;;;;;7.27;2.20;;;;;;;;;;5068697;28;20047;-60
2023/07/04 12:53:28;;;;;;;8.00;1.80;;;;;;;;;;5069184;28;20131;-60
2023/07/04 12:55:56;;;;;;;12.50;2.80;;;;;;;;;;5068815;28;20049;-60
2023/07/04 12:58:23;;;;;;;8.63;2.53;;;;;;;;;;5068957;28;20048;-60
2023/07/04 13:00:55;;;;;;;11.30;2.70;;;;;;;;;;5068711;28;20086;-60
2023/07/04 13:03:25;;;;;;;10.45;2.20;;;;;;;;;;5064342;28;20045;-60
2023/07/04 13:05:52;;;;;;;10.13;3.33;;;;;;;;;;5049072;28;20053;-60
2023/07/04 13:08:22;;;;;;;8.43;2.43;;;;;;;;;;5048545;28;20455;-60
2023/07/04 13:10:50;;;;;;;12.67;3.27;;;;;;;;;;5062244;28;20463;-60
2023/07/04 13:13:31;;;;;;;11.17;2.83;;;;;;;;;;5068641;28;20839;-60
2023/07/04 13:16:08;;;;;;;12.97;3.47;;;;;;;;;;5068124;28;20053;-60
2023/07/04 13:18:38;;;;;;;12.97;2.90;;;;;;;;;;5068356;28;20040;-60
2023/07/04 13:21:03;;;;;;;10.77;3.13;;;;;;;;;;5068382;28;20071;-61
2023/07/04 13:23:34;;;;;;;12.97;4.07;;;;;;;;;;5068582;28;20410;-61
2023/07/04 13:26:00;;;;;;;14.20;3.10;;;;;;;;;;5057024;28;20072;-61
2023/07/04 13:28:30;;;;;;;12.63;2.80;;;;;;;;;;5048586;28;20063;-61
2023/07/04 13:31:15;;;;;;;8.73;2.50;;;;;;;;;;5047560;28;20520;-60
2023/07/04 13:33:41;;;;;;;9.17;2.50;;;;;;;;;;5048233;28;20056;-61
2023/07/04 13:36:20;;;;;;;13.27;3.10;;;;;;;;;;5065517;28;20056;-60
2023/07/04 13:38:47;;;;;;;10.60;3.63;;;;;;;;;;5067973;28;20053;-61
2023/07/04 13:41:14;;;;;;;9.67;2.80;;;;;;;;;;5060058;28;20181;-60
2023/07/04 13:43:41;;;;;;;11.07;2.80;;;;;;;;;;5047168;28;20041;-60
2023/07/04 13:46:07;;;;;;;11.27;2.90;;;;;;;;;;5048466;28;20105;-61
2023/07/04 13:48:34;;;;;;;9.17;2.90;;;;;;;;;;5048066;28;20231;-60
2023/07/04 13:51:00;;;;;;;12.63;3.57;;;;;;;;;;5047427;28;20049;-61
2023/07/04 13:53:26;;;;;;;8.97;2.83;;;;;;;;;;5047997;28;20476;-61
2023/07/04 13:55:53;;;;;;;6.97;2.15;;;;;;;;;;5048054;28;20045;-61
2023/07/04 13:58:20;;;;;;;10.57;2.60;;;;;;;;;;5047498;28;20072;-61
2023/07/04 14:00:46;;;;;;;10.03;2.63;;;;;;;;;;5065281;28;20153;-61
2023/07/04 14:03:12;;;;;;;15.32;3.15;;;;;;;;;;5066913;28;20521;-61
2023/07/04 14:05:39;;;;;;;9.77;2.67;;;;;;;;;;5067740;28;20045;-62
2023/07/04 14:08:05;;;;;;;9.43;2.90;;;;;;;;;;5067878;28;20051;-62
2023/07/04 14:10:31;;;;;;;9.98;3.10;;;;;;;;;;5066992;28;20127;-61
2023/07/04 14:12:57;;;;;;;9.75;2.58;;;;;;;;;;5067059;28;20659;-61
2023/07/04 14:15:23;;;;;;;8.55;2.60;;;;;;;;;;5068040;28;20044;-59
2023/07/04 14:17:49;;;;;;;6.90;2.08;;;;;;;;;;5067472;28;20102;-59
2023/07/04 14:20:15;;;;;;;10.55;2.97;;;;;;;;;;5067427;28;20041;-59
2023/07/04 14:22:41;;;;;;;7.40;2.53;;;;;;;;;;5065011;28;20166;-62
2023/07/04 14:25:07;;;;;;;6.88;2.33;;;;;;;;;;5047322;28;20084;-62
2023/07/04 14:27:35;;;;;;;8.43;2.92;;;;;;;;;;5047705;28;20052;-62
2023/07/04 14:30:01;;;;;;;7.78;2.72;;;;;;;;;;5046691;28;20053;-59
2023/07/04 14:32:27;;;;;;;6.18;2.00;;;;;;;;;;5047682;28;20501;-59
2023/07/04 14:34:54;;;;;;;9.77;2.95;;;;;;;;;;5047732;28;20045;-59
2023/07/04 14:37:20;;;;;;;6.00;2.35;;;;;;;;;;5049674;28;20103;-59